createdAt,value
2023-02-13T00:00:26.620Z,-2.46
2023-02-13T00:02:55.622Z,-2.57
2023-02-13T00:05:24.929Z,-2.55
2023-02-13T00:07:54.708Z,-2.81
2023-02-13T00:10:23.943Z,-2.55
2023-02-13T00:12:53.029Z,-2.46
2023-02-13T00:15:22.477Z,-2.73
2023-02-13T00:17:53.540Z,-2.57
2023-02-13T00:20:23.497Z,-2.99
2023-02-13T00:22:52.858Z,-2.71
2023-02-13T00:25:22.100Z,-2.89
2023-02-13T00:27:54.097Z,-2.60
2023-02-13T00:30:24.758Z,-2.65
2023-02-13T00:32:55.404Z,-2.69
2023-02-13T00:35:26.967Z,-2.78
2023-02-13T00:37:56.575Z,-2.97
2023-02-13T00:40:27.107Z,-2.89
2023-02-13T00:42:56.569Z,-2.73
2023-02-13T00:45:25.963Z,-3.06
2023-02-13T00:47:56.539Z,-2.88
2023-02-13T00:50:25.738Z,-2.85
2023-02-13T00:52:54.953Z,-2.91
2023-02-13T00:55:24.647Z,-2.64
2023-02-13T00:57:53.961Z,-2.69
2023-02-13T01:00:23.541Z,-2.69
2023-02-13T01:02:53.108Z,-2.66
2023-02-13T01:05:23.632Z,-2.79
2023-02-13T01:07:53.123Z,-2.70
2023-02-13T01:10:22.486Z,-2.63
2023-02-13T01:12:51.642Z,-2.61
2023-02-13T01:15:21.227Z,-2.63
2023-02-13T01:17:50.899Z,-2.86
2023-02-13T01:20:20.725Z,-2.63
2023-02-13T01:22:51.529Z,-2.83
2023-02-13T01:25:21.365Z,-2.71
2023-02-13T01:27:52.729Z,-2.79
2023-02-13T01:30:22.507Z,-2.99
2023-02-13T01:32:51.545Z,-2.70
2023-02-13T01:35:21.240Z,-3.09
2023-02-13T01:37:52.089Z,-2.99
2023-02-13T01:40:22.292Z,-2.82
2023-02-13T01:42:51.522Z,-2.83
2023-02-13T01:45:25.453Z,-2.91
2023-02-13T01:47:59.324Z,-2.84
2023-02-13T01:50:34.357Z,-2.67
2023-02-13T01:53:09.335Z,-2.74
2023-02-13T01:55:44.387Z,-2.78
2023-02-13T01:58:18.688Z,-2.82
2023-02-13T02:00:49.905Z,-2.84
2023-02-13T02:03:24.471Z,-2.92
2023-02-13T02:05:56.642Z,-2.92
2023-02-13T02:08:27.536Z,-2.84
2023-02-13T02:10:59.550Z,-2.75
2023-02-13T02:13:28.905Z,-3.16
2023-02-13T02:16:04.052Z,-2.75
2023-02-13T02:18:33.242Z,-2.66
2023-02-13T02:21:33.240Z,-2.63
2023-02-13T02:24:27.598Z,-2.65
2023-02-13T02:27:12.984Z,-2.56
2023-02-13T02:30:09.214Z,-2.50
2023-02-13T02:32:56.587Z,-2.56
2023-02-13T02:35:34.740Z,-2.44
2023-02-13T02:38:25.540Z,-2.50
2023-02-13T02:41:06.649Z,-2.69
2023-02-13T02:43:52.519Z,-2.39
2023-02-13T02:46:30.960Z,-2.44
2023-02-13T02:49:36.048Z,-2.60
2023-02-13T02:52:10.781Z,-2.57
2023-02-13T02:55:15.607Z,-2.39
2023-02-13T02:58:20.954Z,-2.45
2023-02-13T03:01:09.821Z,-2.44
2023-02-13T03:03:57.498Z,-2.47
2023-02-13T03:06:36.774Z,-2.60
2023-02-13T03:09:29.676Z,-2.63
2023-02-13T03:12:17.696Z,-2.57
2023-02-13T03:14:47.237Z,-2.68
2023-02-13T03:17:36.559Z,-2.54
2023-02-13T03:20:35.760Z,-2.83
2023-02-13T03:23:15.298Z,-2.59
2023-02-13T03:25:58.763Z,-2.61
2023-02-13T03:28:55.505Z,-2.44
2023-02-13T03:31:32.989Z,-2.72
2023-02-13T03:34:05.933Z,-2.50
2023-02-13T03:37:02.738Z,-2.54
2023-02-13T03:39:43.791Z,-2.41
2023-02-13T03:42:18.492Z,-2.41
2023-02-13T03:45:14.315Z,-2.45
2023-02-13T03:47:45.266Z,-2.37
2023-02-13T03:50:15.292Z,-2.31
2023-02-13T03:52:53.544Z,-2.33
2023-02-13T03:55:44.607Z,-2.28
2023-02-13T03:58:34.370Z,-2.08
2023-02-13T04:01:08.159Z,-2.09
2023-02-13T04:03:41.629Z,-2.17
2023-02-13T04:06:14.505Z,-2.08
2023-02-13T04:08:44.480Z,-2.09
2023-02-13T04:11:19.935Z,-1.93
2023-02-13T04:13:53.849Z,-2.08
2023-02-13T04:16:30.590Z,-1.81
2023-02-13T04:19:01.493Z,-1.82
2023-02-13T04:21:34.766Z,-1.91
2023-02-13T04:24:04.253Z,-1.95
2023-02-13T04:26:39.064Z,-2.14
2023-02-13T04:29:08.893Z,-2.14
2023-02-13T04:31:40.408Z,-1.92
2023-02-13T04:34:09.681Z,-2.04
2023-02-13T04:36:38.870Z,-2.09
2023-02-13T04:39:08.060Z,-2.12
2023-02-13T04:41:38.531Z,-2.14
2023-02-13T04:44:08.202Z,-2.02
2023-02-13T04:46:37.525Z,-1.83
2023-02-13T04:49:07.102Z,-1.93
2023-02-13T04:51:36.462Z,-1.92
2023-02-13T04:54:05.904Z,-1.73
2023-02-13T04:56:35.344Z,-1.73
2023-02-13T04:59:06.443Z,-1.70
2023-02-13T05:01:35.856Z,-1.63
2023-02-13T05:04:05.794Z,-1.63
2023-02-13T05:06:35.174Z,-1.46
2023-02-13T05:09:04.225Z,-1.63
2023-02-13T05:11:33.471Z,-1.46
2023-02-13T05:14:02.739Z,-1.62
2023-02-13T05:16:33.190Z,-1.29
2023-02-13T05:19:02.284Z,-1.37
2023-02-13T05:21:49.280Z,-1.35
2023-02-13T05:24:20.524Z,-1.20
2023-02-13T05:26:50.443Z,-1.35
2023-02-13T05:29:23.671Z,-1.33
2023-02-13T05:31:56.262Z,-1.39
2023-02-13T05:34:30.198Z,-1.16
2023-02-13T05:36:59.446Z,-1.18
2023-02-13T05:39:28.451Z,-1.28
2023-02-13T05:41:58.020Z,-1.16
2023-02-13T05:44:27.243Z,-1.23
2023-02-13T05:46:58.104Z,-1.18
2023-02-13T05:49:27.495Z,-0.98
2023-02-13T05:51:58.059Z,-1.04
2023-02-13T05:54:28.016Z,-0.66
2023-02-13T05:56:57.516Z,-0.61
2023-02-13T05:59:26.822Z,-0.50
2023-02-13T06:01:58.140Z,-0.78
2023-02-13T06:04:30.752Z,-0.80
2023-02-13T06:06:59.979Z,-0.74
2023-02-13T06:09:29.261Z,-0.87
2023-02-13T06:11:58.772Z,-0.76
2023-02-13T06:14:30.722Z,-1.19
2023-02-13T06:17:02.497Z,-0.69
2023-02-13T06:19:31.974Z,-0.74
2023-02-13T06:22:01.714Z,-0.74
2023-02-13T06:24:31.292Z,-0.52
2023-02-13T06:27:01.061Z,-0.81
2023-02-13T06:29:31.439Z,-0.69
2023-02-13T06:32:02.071Z,-0.56
2023-02-13T06:34:32.157Z,-0.82
2023-02-13T06:37:01.719Z,-0.43
2023-02-13T06:39:31.165Z,-0.75
2023-02-13T06:42:01.008Z,-0.62
2023-02-13T06:44:30.725Z,-0.87
2023-02-13T06:47:02.044Z,-0.89
2023-02-13T06:49:31.470Z,-0.65
2023-02-13T06:52:00.734Z,-0.88
2023-02-13T06:54:46.006Z,-0.41
2023-02-13T06:57:17.858Z,-0.65
2023-02-13T06:59:47.158Z,-0.70
2023-02-13T07:02:17.846Z,-0.24
2023-02-13T07:04:47.520Z,-0.42
2023-02-13T07:07:16.910Z,-0.47
2023-02-13T07:09:46.408Z,-0.21
2023-02-13T07:12:16.534Z,-0.27
2023-02-13T07:14:46.187Z,-0.13
2023-02-13T07:17:15.386Z,-0.03
2023-02-13T07:19:46.025Z,-0.31
2023-02-13T07:22:15.378Z,0.18
2023-02-13T07:24:44.675Z,-0.05
2023-02-13T07:27:13.796Z,-0.23
2023-02-13T07:29:43.534Z,0.15
2023-02-13T07:32:12.971Z,0.74
2023-02-13T07:34:55.717Z,0.58
2023-02-13T07:37:32.581Z,1.11
2023-02-13T07:40:05.684Z,0.41
2023-02-13T07:42:35.846Z,0.69
2023-02-13T07:45:07.646Z,1.15
2023-02-13T07:47:37.589Z,1.46
2023-02-13T07:50:08.378Z,1.17
2023-02-13T07:52:39.226Z,1.28
2023-02-13T07:55:11.608Z,1.04
2023-02-13T07:57:41.232Z,0.91
2023-02-13T08:00:11.759Z,0.70
2023-02-13T08:02:42.428Z,0.83
2023-02-13T08:05:11.699Z,1.02
2023-02-13T08:07:42.480Z,1.80
2023-02-13T08:10:32.711Z,1.07
2023-02-13T08:13:02.389Z,1.81
2023-02-13T08:15:31.703Z,1.17
2023-02-13T08:18:01.015Z,1.53
2023-02-13T08:20:31.454Z,1.07
2023-02-13T08:23:05.998Z,1.49
2023-02-13T08:25:36.126Z,0.61
2023-02-13T08:28:05.745Z,0.49
2023-02-13T08:30:35.870Z,0.67
2023-02-13T08:33:05.794Z,0.80
2023-02-13T08:35:35.361Z,0.91
2023-02-13T08:38:06.372Z,1.19
2023-02-13T08:40:35.713Z,0.62
2023-02-13T08:43:06.795Z,0.37
2023-02-13T08:45:38.217Z,0.82
2023-02-13T08:48:07.605Z,0.68
2023-02-13T08:50:37.571Z,0.97
2023-02-13T08:53:08.012Z,1.04
2023-02-13T08:55:37.406Z,-0.05
2023-02-13T08:58:07.294Z,0.67
2023-02-13T09:00:36.345Z,0.50
2023-02-13T09:03:15.526Z,0.58
2023-02-13T09:05:47.727Z,0.40
2023-02-13T09:08:19.033Z,0.43
2023-02-13T09:10:49.126Z,0.42
2023-02-13T09:13:18.455Z,0.64
2023-02-13T09:15:54.414Z,0.53
2023-02-13T09:18:23.954Z,1.94
2023-02-13T09:20:59.163Z,1.34
2023-02-13T09:23:32.985Z,1.14
2023-02-13T09:26:02.796Z,1.50
2023-02-13T09:28:33.939Z,0.95
2023-02-13T09:31:07.855Z,1.51
2023-02-13T09:33:37.788Z,1.15
2023-02-13T09:36:08.020Z,1.45
2023-02-13T09:38:38.951Z,1.62
2023-02-13T09:41:14.287Z,1.63
2023-02-13T09:43:48.525Z,1.95
2023-02-13T09:46:22.540Z,1.80
2023-02-13T09:48:56.014Z,1.74
2023-02-13T09:51:26.951Z,1.09
2023-02-13T09:54:01.583Z,1.12
2023-02-13T09:56:42.002Z,1.64
2023-02-13T09:59:34.189Z,1.49
2023-02-13T10:02:21.632Z,2.04
2023-02-13T10:04:58.561Z,2.12
2023-02-13T10:07:37.033Z,0.64
2023-02-13T10:10:18.339Z,1.86
2023-02-13T10:13:07.971Z,1.62
2023-02-13T10:15:50.000Z,1.64
2023-02-13T10:18:23.332Z,2.03
2023-02-13T10:20:57.351Z,1.92
2023-02-13T10:23:31.498Z,1.66
2023-02-13T10:26:05.183Z,2.03
2023-02-13T10:28:38.978Z,2.16
2023-02-13T10:31:11.582Z,1.86
2023-02-13T10:33:49.405Z,1.53
2023-02-13T10:36:22.372Z,2.49
2023-02-13T10:39:01.969Z,3.01
2023-02-13T10:41:47.242Z,2.98
2023-02-13T10:44:46.949Z,2.71
2023-02-13T10:47:28.562Z,2.27
2023-02-13T10:50:15.973Z,1.86
2023-02-13T10:52:52.959Z,2.44
2023-02-13T10:55:47.141Z,2.39
2023-02-13T10:58:22.191Z,2.12
2023-02-13T11:00:57.248Z,1.93
2023-02-13T11:03:28.970Z,1.90
2023-02-13T11:06:01.466Z,1.88
2023-02-13T11:08:34.662Z,2.75
2023-02-13T11:11:04.034Z,2.46
2023-02-13T11:13:34.632Z,2.71
2023-02-13T11:16:06.370Z,2.69
2023-02-13T11:18:39.007Z,2.38
2023-02-13T11:21:11.302Z,3.15
2023-02-13T11:23:45.423Z,2.45
2023-02-13T11:26:22.980Z,3.01
2023-02-13T11:28:56.955Z,2.94
2023-02-13T11:31:29.352Z,2.74
2023-02-13T11:33:59.575Z,3.19
2023-02-13T11:36:30.952Z,2.90
2023-02-13T11:39:02.865Z,3.39
2023-02-13T11:41:33.763Z,3.39
2023-02-13T11:44:06.282Z,3.38
2023-02-13T11:46:47.933Z,3.13
2023-02-13T11:49:21.175Z,2.72
2023-02-13T11:51:52.965Z,3.40
2023-02-13T11:54:31.421Z,3.29
2023-02-13T11:57:05.124Z,3.42
2023-02-13T11:59:42.981Z,2.98
2023-02-13T12:02:19.429Z,2.35
2023-02-13T12:04:50.271Z,2.47
2023-02-13T12:07:23.445Z,2.85
2023-02-13T12:10:02.035Z,2.35
2023-02-13T12:12:37.007Z,2.71
2023-02-13T12:15:18.991Z,2.76
2023-02-13T12:18:05.933Z,2.76
2023-02-13T12:20:45.505Z,3.00
2023-02-13T12:23:30.634Z,3.11
2023-02-13T12:26:32.136Z,2.46
2023-02-13T12:29:23.336Z,3.52
2023-02-13T12:32:04.235Z,5.37
2023-02-13T12:35:05.413Z,5.31
2023-02-13T12:37:59.359Z,4.34
2023-02-13T12:40:45.213Z,4.78
2023-02-13T12:43:47.506Z,5.34
2023-02-13T12:46:23.403Z,5.61
2023-02-13T12:49:02.106Z,5.87
2023-02-13T12:51:47.996Z,4.58
2023-02-13T12:54:35.597Z,5.25
2023-02-13T12:57:19.015Z,5.01
2023-02-13T13:00:13.673Z,5.53
2023-02-13T13:02:53.580Z,6.96
2023-02-13T13:05:41.983Z,6.76
2023-02-13T13:08:31.287Z,6.28
2023-02-13T13:11:19.479Z,5.85
2023-02-13T13:14:01.087Z,5.26
2023-02-13T13:16:43.157Z,5.76
2023-02-13T13:19:20.822Z,5.34
2023-02-13T13:21:56.927Z,5.21
2023-02-13T13:24:42.310Z,5.10
2023-02-13T13:27:20.141Z,5.16
2023-02-13T13:29:56.156Z,5.28
2023-02-13T13:32:27.929Z,4.86
2023-02-13T13:35:00.251Z,5.54
2023-02-13T13:37:36.790Z,5.45
2023-02-13T13:40:27.797Z,4.79
2023-02-13T13:43:04.754Z,5.02
2023-02-13T13:45:44.336Z,5.40
2023-02-13T13:48:39.518Z,4.60
2023-02-13T13:51:13.944Z,5.02
2023-02-13T13:54:21.648Z,4.95
2023-02-13T13:57:13.651Z,5.01
2023-02-13T14:00:26.800Z,4.70
2023-02-13T14:03:39.106Z,4.89
2023-02-13T14:06:10.924Z,4.81
2023-02-13T14:09:29.582Z,4.33
2023-02-13T14:12:02.802Z,4.86
2023-02-13T14:14:53.640Z,4.95
2023-02-13T14:18:01.499Z,5.09
2023-02-13T14:20:37.130Z,4.34
2023-02-13T14:23:19.172Z,4.72
2023-02-13T14:25:50.047Z,4.11
2023-02-13T14:28:27.595Z,4.70
2023-02-13T14:31:15.048Z,4.57
2023-02-13T14:33:45.016Z,4.26
2023-02-13T14:36:23.177Z,4.18
2023-02-13T14:38:58.368Z,4.38
2023-02-13T14:41:47.640Z,4.82
2023-02-13T14:44:20.935Z,4.40
2023-02-13T14:46:53.055Z,4.58
2023-02-13T14:49:25.852Z,4.62
2023-02-13T14:51:59.269Z,4.64
2023-02-13T14:54:34.420Z,4.59
2023-02-13T14:57:14.752Z,4.24
2023-02-13T14:59:49.956Z,4.96
2023-02-13T15:02:25.128Z,4.43
2023-02-13T15:04:59.330Z,4.78
2023-02-13T15:07:37.309Z,5.11
2023-02-13T15:10:36.591Z,4.13
2023-02-13T15:13:22.284Z,4.89
2023-02-13T15:16:00.450Z,3.02
2023-02-13T15:18:34.365Z,2.72
2023-02-13T15:21:04.762Z,4.60
2023-02-13T15:23:38.064Z,4.81
2023-02-13T15:26:09.491Z,4.62
2023-02-13T15:28:40.720Z,4.49
2023-02-13T15:31:33.516Z,4.66
2023-02-13T15:34:03.250Z,4.89
2023-02-13T15:36:40.793Z,4.71
2023-02-13T15:39:19.260Z,4.59
2023-02-13T15:41:51.212Z,4.83
2023-02-13T15:44:26.446Z,4.66
2023-02-13T15:46:58.555Z,4.25
2023-02-13T15:49:29.240Z,4.25
2023-02-13T15:52:08.017Z,4.56
2023-02-13T15:54:37.366Z,4.56
2023-02-13T15:57:08.735Z,4.20
2023-02-13T15:59:41.302Z,4.22
2023-02-13T16:02:17.918Z,4.46
2023-02-13T16:04:49.363Z,4.02
2023-02-13T16:07:20.724Z,4.04
2023-02-13T16:09:50.253Z,4.36
2023-02-13T16:12:24.318Z,3.69
2023-02-13T16:15:00.003Z,4.30
2023-02-13T16:17:34.611Z,3.93
2023-02-13T16:20:07.868Z,4.40
2023-02-13T16:22:40.127Z,3.80
2023-02-13T16:25:19.413Z,4.21
2023-02-13T16:27:51.499Z,4.37
2023-02-13T16:30:33.773Z,4.30
2023-02-13T16:33:25.359Z,4.73
2023-02-13T16:35:56.679Z,4.13
2023-02-13T16:38:34.529Z,4.20
2023-02-13T16:41:06.615Z,4.23
2023-02-13T16:43:41.675Z,4.43
2023-02-13T16:46:27.402Z,4.55
2023-02-13T16:49:16.024Z,4.15
2023-02-13T16:51:47.915Z,4.51
2023-02-13T16:54:30.776Z,4.43
2023-02-13T16:57:02.978Z,4.57
2023-02-13T16:59:43.320Z,4.77
2023-02-13T17:02:20.340Z,3.60
2023-02-13T17:04:53.083Z,4.72
2023-02-13T17:07:26.744Z,4.61
2023-02-13T17:10:01.667Z,4.69
2023-02-13T17:12:33.052Z,4.59
2023-02-13T17:15:02.589Z,4.80
2023-02-13T17:17:33.827Z,4.61
2023-02-13T17:20:04.443Z,4.74
2023-02-13T17:22:37.225Z,4.69
2023-02-13T17:25:09.451Z,4.85
2023-02-13T17:27:39.159Z,4.90
2023-02-13T17:30:09.549Z,4.55
2023-02-13T17:32:40.584Z,4.54
2023-02-13T17:35:12.556Z,4.20
2023-02-13T17:37:42.938Z,4.42
2023-02-13T17:40:18.622Z,4.35
2023-02-13T17:42:49.205Z,4.39
2023-02-13T17:45:20.893Z,4.74
2023-02-13T17:47:54.688Z,4.89
2023-02-13T17:50:23.908Z,4.66
2023-02-13T17:52:53.592Z,4.73
2023-02-13T17:55:25.750Z,4.33
2023-02-13T17:57:57.623Z,4.74
2023-02-13T18:00:30.393Z,4.77
2023-02-13T18:03:02.118Z,4.60
2023-02-13T18:05:33.412Z,5.02
2023-02-13T18:08:03.398Z,4.76
2023-02-13T18:10:34.843Z,4.45
2023-02-13T18:13:05.488Z,4.70
2023-02-13T18:15:37.687Z,4.63
2023-02-13T18:18:08.568Z,4.71
2023-02-13T18:20:37.849Z,4.71
2023-02-13T18:23:08.214Z,4.79
2023-02-13T18:25:39.084Z,4.69
2023-02-13T18:28:09.158Z,4.46
2023-02-13T18:30:38.768Z,4.82
2023-02-13T18:33:09.778Z,4.73
2023-02-13T18:35:39.185Z,4.42
2023-02-13T18:38:08.586Z,4.56
2023-02-13T18:40:39.670Z,3.82
2023-02-13T18:43:10.118Z,4.51
2023-02-13T18:45:39.712Z,4.97
2023-02-13T18:48:10.598Z,4.86
2023-02-13T18:50:41.428Z,4.88
2023-02-13T18:53:11.716Z,4.95
2023-02-13T18:55:41.979Z,4.72
2023-02-13T18:58:11.990Z,4.73
2023-02-13T19:00:42.081Z,4.74
2023-02-13T19:03:17.804Z,4.85
2023-02-13T19:05:47.460Z,5.05
2023-02-13T19:08:18.684Z,4.80
2023-02-13T19:10:48.739Z,4.95
2023-02-13T19:13:18.630Z,4.88
2023-02-13T19:15:48.205Z,4.00
2023-02-13T19:18:19.284Z,4.87
2023-02-13T19:20:48.611Z,4.69
2023-02-13T19:23:18.764Z,4.96
2023-02-13T19:25:50.881Z,5.24
2023-02-13T19:28:21.069Z,5.12
2023-02-13T19:30:51.133Z,5.09
2023-02-13T19:33:22.037Z,4.77
2023-02-13T19:35:59.013Z,4.80
2023-02-13T19:38:28.686Z,4.92
2023-02-13T19:41:04.612Z,4.93
2023-02-13T19:43:37.365Z,4.95
2023-02-13T19:46:10.426Z,5.19
2023-02-13T19:48:42.122Z,4.89
2023-02-13T19:51:13.542Z,4.97
2023-02-13T19:53:44.231Z,4.64
2023-02-13T19:56:15.798Z,4.84
2023-02-13T19:58:46.591Z,4.43
2023-02-13T20:01:17.478Z,4.82
2023-02-13T20:03:49.311Z,4.63
2023-02-13T20:06:22.670Z,4.54
2023-02-13T20:08:54.003Z,4.95
2023-02-13T20:11:24.227Z,4.96
2023-02-13T20:13:55.899Z,5.14
2023-02-13T20:16:26.224Z,5.01
2023-02-13T20:18:59.103Z,4.78
2023-02-13T20:21:28.958Z,4.30
2023-02-13T20:23:58.793Z,5.00
2023-02-13T20:26:28.416Z,4.88
2023-02-13T20:29:00.166Z,5.08
2023-02-13T20:31:31.836Z,4.80
2023-02-13T20:34:03.694Z,4.66
2023-02-13T20:36:34.020Z,4.96
2023-02-13T20:39:06.316Z,5.11
2023-02-13T20:41:38.322Z,4.66
2023-02-13T20:44:11.557Z,4.71
2023-02-13T20:46:42.926Z,4.63
2023-02-13T20:49:21.274Z,4.94
2023-02-13T20:51:51.266Z,4.74
2023-02-13T20:54:21.919Z,4.92
2023-02-13T20:56:51.828Z,4.53
2023-02-13T20:59:21.529Z,4.67
2023-02-13T21:01:51.173Z,4.62
2023-02-13T21:04:22.909Z,4.90
2023-02-13T21:06:52.742Z,5.02
2023-02-13T21:09:22.757Z,4.92
2023-02-13T21:11:54.612Z,5.03
2023-02-13T21:14:24.348Z,5.04
2023-02-13T21:16:55.257Z,5.19
2023-02-13T21:19:26.264Z,5.15
2023-02-13T21:21:55.347Z,4.60
2023-02-13T21:24:24.850Z,4.82
2023-02-13T21:26:55.125Z,5.02
2023-02-13T21:29:24.733Z,4.92
2023-02-13T21:31:56.851Z,4.57
2023-02-13T21:34:27.937Z,4.79
2023-02-13T21:36:57.639Z,4.84
2023-02-13T21:39:27.205Z,4.79
2023-02-13T21:41:56.536Z,4.83
2023-02-13T21:44:26.079Z,4.74
2023-02-13T21:46:55.689Z,4.81
2023-02-13T21:49:25.929Z,4.79
2023-02-13T21:51:56.511Z,4.57
2023-02-13T21:54:26.505Z,5.05
2023-02-13T21:56:55.819Z,4.70
2023-02-13T21:59:25.938Z,5.11
2023-02-13T22:01:56.065Z,4.92
2023-02-13T22:04:25.812Z,5.10
2023-02-13T22:06:56.601Z,5.20
2023-02-13T22:09:27.710Z,4.96
2023-02-13T22:11:57.100Z,4.80
2023-02-13T22:14:26.687Z,5.22
2023-02-13T22:16:57.704Z,5.01
2023-02-13T22:19:27.651Z,5.15
2023-02-13T22:21:58.699Z,4.83
2023-02-13T22:24:28.715Z,4.89
2023-02-13T22:26:58.431Z,4.90
2023-02-13T22:29:28.077Z,5.10
2023-02-13T22:31:57.397Z,5.17
2023-02-13T22:34:27.127Z,5.22
2023-02-13T22:36:57.861Z,5.30
2023-02-13T22:39:27.395Z,5.28
2023-02-13T22:41:57.186Z,5.30
2023-02-13T22:44:26.761Z,5.39
2023-02-13T22:46:56.216Z,5.05
2023-02-13T22:49:25.729Z,4.90
2023-02-13T22:51:55.175Z,5.23
2023-02-13T22:54:42.945Z,5.46
2023-02-13T22:57:22.252Z,5.35
2023-02-13T23:00:06.002Z,5.60
2023-02-13T23:03:20.958Z,5.36
2023-02-13T23:05:51.401Z,4.80
2023-02-13T23:08:20.995Z,5.41
2023-02-13T23:11:14.278Z,5.24
2023-02-13T23:13:56.862Z,5.05
2023-02-13T23:16:28.233Z,5.15
2023-02-13T23:18:58.211Z,5.25
2023-02-13T23:21:27.850Z,5.07
2023-02-13T23:23:57.578Z,4.93
2023-02-13T23:26:28.365Z,4.97
2023-02-13T23:28:57.477Z,5.01
2023-02-13T23:31:26.831Z,5.11
2023-02-13T23:33:56.839Z,5.07
2023-02-13T23:36:26.248Z,5.18
2023-02-13T23:38:55.334Z,5.02
2023-02-13T23:41:24.480Z,5.02
2023-02-13T23:43:55.002Z,5.17
2023-02-13T23:46:24.596Z,5.30
2023-02-13T23:48:54.158Z,5.32
2023-02-13T23:51:25.646Z,5.11
2023-02-13T23:53:57.420Z,5.17
2023-02-13T23:56:26.818Z,5.28
2023-02-13T23:58:58.706Z,5.42
